sensor_id;sensor_type;location;lat;lon;timestamp;P1;durP1;ratioP1;P2;durP2;ratioP2
11911;SDS011;6016;41.928;25.556;2023-12-29T00:00:47;40.92;;;18.20;;
11911;SDS011;6016;41.928;25.556;2023-12-29T00:03:14;33.22;;;14.98;;
11911;SDS011;6016;41.928;25.556;2023-12-29T00:05:42;21.52;;;10.25;;
11911;SDS011;6016;41.928;25.556;2023-12-29T00:08:09;23.30;;;9.18;;
11911;SDS011;6016;41.928;25.556;2023-12-29T00:10:36;18.17;;;9.95;;
11911;SDS011;6016;41.928;25.556;2023-12-29T00:13:03;21.50;;;9.15;;
11911;SDS011;6016;41.928;25.556;2023-12-29T00:15:30;21.08;;;9.23;;
11911;SDS011;6016;41.928;25.556;2023-12-29T00:17:57;17.38;;;8.65;;
11911;SDS011;6016;41.928;25.556;2023-12-29T00:20:24;21.02;;;8.90;;
11911;SDS011;6016;41.928;25.556;2023-12-29T00:22:52;20.15;;;9.00;;
11911;SDS011;6016;41.928;25.556;2023-12-29T00:25:23;20.92;;;8.60;;
11911;SDS011;6016;41.928;25.556;2023-12-29T00:27:50;18.83;;;8.82;;
11911;SDS011;6016;41.928;25.556;2023-12-29T00:30:17;18.02;;;8.90;;
11911;SDS011;6016;41.928;25.556;2023-12-29T00:32:45;16.10;;;8.52;;
11911;SDS011;6016;41.928;25.556;2023-12-29T00:35:12;18.75;;;8.25;;
11911;SDS011;6016;41.928;25.556;2023-12-29T00:37:39;17.45;;;8.63;;
11911;SDS011;6016;41.928;25.556;2023-12-29T00:40:08;18.48;;;9.38;;
11911;SDS011;6016;41.928;25.556;2023-12-29T00:42:36;28.80;;;14.13;;
11911;SDS011;6016;41.928;25.556;2023-12-29T00:45:03;33.00;;;16.17;;
11911;SDS011;6016;41.928;25.556;2023-12-29T00:47:31;37.78;;;17.33;;
11911;SDS011;6016;41.928;25.556;2023-12-29T00:49:58;36.78;;;16.50;;
11911;SDS011;6016;41.928;25.556;2023-12-29T00:52:25;36.78;;;15.57;;
11911;SDS011;6016;41.928;25.556;2023-12-29T00:54:52;25.90;;;10.55;;
11911;SDS011;6016;41.928;25.556;2023-12-29T00:57:20;18.70;;;9.13;;
11911;SDS011;6016;41.928;25.556;2023-12-29T00:59:47;22.30;;;9.20;;
11911;SDS011;6016;41.928;25.556;2023-12-29T01:02:14;22.98;;;9.18;;
11911;SDS011;6016;41.928;25.556;2023-12-29T01:04:41;18.15;;;9.75;;
11911;SDS011;6016;41.928;25.556;2023-12-29T01:07:08;23.92;;;10.65;;
11911;SDS011;6016;41.928;25.556;2023-12-29T01:09:37;20.23;;;10.02;;
11911;SDS011;6016;41.928;25.556;2023-12-29T01:12:05;18.48;;;9.15;;
11911;SDS011;6016;41.928;25.556;2023-12-29T01:14:34;20.13;;;9.27;;
11911;SDS011;6016;41.928;25.556;2023-12-29T01:17:01;18.83;;;9.05;;
11911;SDS011;6016;41.928;25.556;2023-12-29T01:19:28;15.23;;;8.32;;
11911;SDS011;6016;41.928;25.556;2023-12-29T01:21:55;14.65;;;8.35;;
11911;SDS011;6016;41.928;25.556;2023-12-29T01:24:22;16.58;;;7.75;;
11911;SDS011;6016;41.928;25.556;2023-12-29T01:26:49;15.13;;;7.85;;
11911;SDS011;6016;41.928;25.556;2023-12-29T01:29:16;14.65;;;7.20;;
11911;SDS011;6016;41.928;25.556;2023-12-29T01:31:44;12.70;;;7.28;;
11911;SDS011;6016;41.928;25.556;2023-12-29T01:34:11;13.25;;;6.15;;
11911;SDS011;6016;41.928;25.556;2023-12-29T01:36:38;14.93;;;6.60;;
11911;SDS011;6016;41.928;25.556;2023-12-29T01:39:05;16.80;;;7.15;;
11911;SDS011;6016;41.928;25.556;2023-12-29T01:41:32;12.15;;;6.68;;
11911;SDS011;6016;41.928;25.556;2023-12-29T01:44:18;14.90;;;6.72;;
11911;SDS011;6016;41.928;25.556;2023-12-29T01:46:49;15.32;;;7.70;;
11911;SDS011;6016;41.928;25.556;2023-12-29T01:49:17;17.17;;;9.18;;
11911;SDS011;6016;41.928;25.556;2023-12-29T01:51:47;20.25;;;10.13;;
11911;SDS011;6016;41.928;25.556;2023-12-29T01:54:17;17.45;;;7.80;;
11911;SDS011;6016;41.928;25.556;2023-12-29T01:56:45;15.55;;;8.00;;
11911;SDS011;6016;41.928;25.556;2023-12-29T01:59:13;23.73;;;10.68;;
11911;SDS011;6016;41.928;25.556;2023-12-29T02:01:40;23.13;;;10.70;;
11911;SDS011;6016;41.928;25.556;2023-12-29T02:04:10;24.75;;;11.70;;
11911;SDS011;6016;41.928;25.556;2023-12-29T02:06:39;26.88;;;12.60;;
11911;SDS011;6016;41.928;25.556;2023-12-29T02:09:06;22.40;;;10.82;;
11911;SDS011;6016;41.928;25.556;2023-12-29T02:11:33;22.40;;;10.80;;
11911;SDS011;6016;41.928;25.556;2023-12-29T02:14:00;23.13;;;10.10;;
11911;SDS011;6016;41.928;25.556;2023-12-29T02:16:30;18.20;;;8.63;;
11911;SDS011;6016;41.928;25.556;2023-12-29T02:19:04;15.68;;;7.22;;
11911;SDS011;6016;41.928;25.556;2023-12-29T02:21:45;13.52;;;6.72;;
11911;SDS011;6016;41.928;25.556;2023-12-29T02:24:12;13.73;;;6.38;;
11911;SDS011;6016;41.928;25.556;2023-12-29T02:26:40;13.25;;;6.80;;
11911;SDS011;6016;41.928;25.556;2023-12-29T02:29:14;13.20;;;6.78;;
11911;SDS011;6016;41.928;25.556;2023-12-29T02:31:47;11.75;;;6.45;;
11911;SDS011;6016;41.928;25.556;2023-12-29T02:36:46;14.05;;;6.85;;
11911;SDS011;6016;41.928;25.556;2023-12-29T02:39:15;15.15;;;6.82;;
11911;SDS011;6016;41.928;25.556;2023-12-29T02:41:44;15.15;;;7.90;;
11911;SDS011;6016;41.928;25.556;2023-12-29T02:44:11;15.15;;;7.50;;
11911;SDS011;6016;41.928;25.556;2023-12-29T02:46:38;17.58;;;8.75;;
11911;SDS011;6016;41.928;25.556;2023-12-29T02:49:05;23.13;;;9.50;;
11911;SDS011;6016;41.928;25.556;2023-12-29T02:51:36;26.60;;;13.15;;
11911;SDS011;6016;41.928;25.556;2023-12-29T02:54:03;28.23;;;12.77;;
11911;SDS011;6016;41.928;25.556;2023-12-29T02:56:32;27.88;;;13.43;;
11911;SDS011;6016;41.928;25.556;2023-12-29T02:59:01;32.97;;;16.35;;
11911;SDS011;6016;41.928;25.556;2023-12-29T03:01:28;27.20;;;12.55;;
11911;SDS011;6016;41.928;25.556;2023-12-29T03:03:55;24.27;;;12.63;;
11911;SDS011;6016;41.928;25.556;2023-12-29T03:06:22;27.80;;;13.75;;
11911;SDS011;6016;41.928;25.556;2023-12-29T03:08:50;28.60;;;14.30;;
11911;SDS011;6016;41.928;25.556;2023-12-29T03:11:16;34.00;;;14.23;;
11911;SDS011;6016;41.928;25.556;2023-12-29T03:13:43;29.92;;;13.20;;
11911;SDS011;6016;41.928;25.556;2023-12-29T03:16:11;24.52;;;12.30;;
11911;SDS011;6016;41.928;25.556;2023-12-29T03:18:38;28.30;;;12.15;;
11911;SDS011;6016;41.928;25.556;2023-12-29T03:21:07;26.95;;;12.15;;
11911;SDS011;6016;41.928;25.556;2023-12-29T03:23:33;26.10;;;11.23;;
11911;SDS011;6016;41.928;25.556;2023-12-29T03:26:00;22.70;;;10.85;;
11911;SDS011;6016;41.928;25.556;2023-12-29T03:28:27;20.25;;;9.93;;
11911;SDS011;6016;41.928;25.556;2023-12-29T03:30:54;17.77;;;9.70;;
11911;SDS011;6016;41.928;25.556;2023-12-29T03:33:23;17.38;;;9.48;;
11911;SDS011;6016;41.928;25.556;2023-12-29T03:35:50;14.57;;;8.00;;
11911;SDS011;6016;41.928;25.556;2023-12-29T03:38:17;11.82;;;6.22;;
11911;SDS011;6016;41.928;25.556;2023-12-29T03:40:44;10.70;;;5.10;;
11911;SDS011;6016;41.928;25.556;2023-12-29T03:43:11;14.15;;;5.70;;
11911;SDS011;6016;41.928;25.556;2023-12-29T03:45:40;10.90;;;4.95;;
11911;SDS011;6016;41.928;25.556;2023-12-29T03:48:07;12.60;;;5.45;;
11911;SDS011;6016;41.928;25.556;2023-12-29T03:50:36;10.57;;;4.78;;
11911;SDS011;6016;41.928;25.556;2023-12-29T03:53:03;11.07;;;5.13;;
11911;SDS011;6016;41.928;25.556;2023-12-29T03:55:30;10.68;;;5.65;;
11911;SDS011;6016;41.928;25.556;2023-12-29T03:57:57;15.30;;;5.85;;
11911;SDS011;6016;41.928;25.556;2023-12-29T04:00:27;19.55;;;8.52;;
11911;SDS011;6016;41.928;25.556;2023-12-29T04:02:54;25.85;;;11.98;;
11911;SDS011;6016;41.928;25.556;2023-12-29T04:05:21;31.02;;;14.23;;
11911;SDS011;6016;41.928;25.556;2023-12-29T04:07:49;26.27;;;12.32;;
11911;SDS011;6016;41.928;25.556;2023-12-29T04:10:16;18.42;;;10.30;;
11911;SDS011;6016;41.928;25.556;2023-12-29T04:12:43;21.23;;;10.65;;
11911;SDS011;6016;41.928;25.556;2023-12-29T04:15:10;23.38;;;9.45;;
11911;SDS011;6016;41.928;25.556;2023-12-29T04:17:38;23.42;;;10.70;;
11911;SDS011;6016;41.928;25.556;2023-12-29T04:20:05;18.98;;;9.35;;
11911;SDS011;6016;41.928;25.556;2023-12-29T04:22:33;17.83;;;8.25;;
11911;SDS011;6016;41.928;25.556;2023-12-29T04:25:01;14.10;;;6.15;;
11911;SDS011;6016;41.928;25.556;2023-12-29T04:27:28;10.30;;;5.43;;
11911;SDS011;6016;41.928;25.556;2023-12-29T04:29:55;11.40;;;5.90;;
11911;SDS011;6016;41.928;25.556;2023-12-29T04:32:22;13.07;;;7.15;;
11911;SDS011;6016;41.928;25.556;2023-12-29T04:34:49;15.00;;;6.90;;
11911;SDS011;6016;41.928;25.556;2023-12-29T04:37:16;14.23;;;7.32;;
11911;SDS011;6016;41.928;25.556;2023-12-29T04:39:43;15.15;;;8.27;;
11911;SDS011;6016;41.928;25.556;2023-12-29T04:42:11;21.17;;;9.50;;
11911;SDS011;6016;41.928;25.556;2023-12-29T04:44:38;14.63;;;8.02;;
11911;SDS011;6016;41.928;25.556;2023-12-29T04:47:05;17.13;;;9.02;;
11911;SDS011;6016;41.928;25.556;2023-12-29T04:49:33;15.73;;;7.72;;
11911;SDS011;6016;41.928;25.556;2023-12-29T04:52:00;14.98;;;8.30;;
11911;SDS011;6016;41.928;25.556;2023-12-29T04:54:27;25.05;;;12.25;;
11911;SDS011;6016;41.928;25.556;2023-12-29T04:56:54;27.63;;;13.07;;
11911;SDS011;6016;41.928;25.556;2023-12-29T04:59:22;22.42;;;11.32;;
11911;SDS011;6016;41.928;25.556;2023-12-29T05:01:49;23.25;;;11.70;;
11911;SDS011;6016;41.928;25.556;2023-12-29T05:04:16;23.85;;;12.07;;
11911;SDS011;6016;41.928;25.556;2023-12-29T05:06:43;23.38;;;11.45;;
11911;SDS011;6016;41.928;25.556;2023-12-29T05:09:10;23.92;;;11.65;;
11911;SDS011;6016;41.928;25.556;2023-12-29T05:11:37;24.65;;;11.60;;
11911;SDS011;6016;41.928;25.556;2023-12-29T05:14:04;21.13;;;10.13;;
11911;SDS011;6016;41.928;25.556;2023-12-29T05:16:32;23.98;;;10.57;;
11911;SDS011;6016;41.928;25.556;2023-12-29T05:18:59;20.13;;;10.07;;
11911;SDS011;6016;41.928;25.556;2023-12-29T05:21:26;19.17;;;9.65;;
11911;SDS011;6016;41.928;25.556;2023-12-29T05:23:53;20.08;;;10.15;;
11911;SDS011;6016;41.928;25.556;2023-12-29T05:26:20;24.73;;;10.60;;
11911;SDS011;6016;41.928;25.556;2023-12-29T05:28:47;17.40;;;8.85;;
11911;SDS011;6016;41.928;25.556;2023-12-29T05:31:14;16.75;;;8.80;;
11911;SDS011;6016;41.928;25.556;2023-12-29T05:33:43;21.60;;;10.88;;
11911;SDS011;6016;41.928;25.556;2023-12-29T05:36:10;21.13;;;9.88;;
11911;SDS011;6016;41.928;25.556;2023-12-29T05:38:38;22.65;;;11.07;;
11911;SDS011;6016;41.928;25.556;2023-12-29T05:41:06;24.13;;;11.57;;
11911;SDS011;6016;41.928;25.556;2023-12-29T05:43:33;36.75;;;15.20;;
11911;SDS011;6016;41.928;25.556;2023-12-29T05:46:00;33.47;;;13.43;;
11911;SDS011;6016;41.928;25.556;2023-12-29T05:48:28;32.47;;;12.50;;
11911;SDS011;6016;41.928;25.556;2023-12-29T05:50:56;31.95;;;12.20;;
11911;SDS011;6016;41.928;25.556;2023-12-29T05:53:23;33.45;;;13.50;;
11911;SDS011;6016;41.928;25.556;2023-12-29T05:55:50;33.63;;;13.88;;
11911;SDS011;6016;41.928;25.556;2023-12-29T05:58:17;29.00;;;12.90;;
11911;SDS011;6016;41.928;25.556;2023-12-29T06:00:44;26.13;;;11.25;;
11911;SDS011;6016;41.928;25.556;2023-12-29T06:03:11;20.10;;;9.80;;
11911;SDS011;6016;41.928;25.556;2023-12-29T06:05:38;36.40;;;14.20;;
11911;SDS011;6016;41.928;25.556;2023-12-29T06:08:07;30.73;;;15.77;;
11911;SDS011;6016;41.928;25.556;2023-12-29T06:10:35;171.68;;;69.47;;
11911;SDS011;6016;41.928;25.556;2023-12-29T06:13:02;91.68;;;39.47;;
11911;SDS011;6016;41.928;25.556;2023-12-29T06:15:29;64.65;;;31.13;;
11911;SDS011;6016;41.928;25.556;2023-12-29T06:17:56;44.92;;;22.50;;
11911;SDS011;6016;41.928;25.556;2023-12-29T06:20:23;42.67;;;20.60;;
11911;SDS011;6016;41.928;25.556;2023-12-29T06:22:50;45.55;;;21.60;;
11911;SDS011;6016;41.928;25.556;2023-12-29T06:25:19;43.88;;;21.90;;
11911;SDS011;6016;41.928;25.556;2023-12-29T06:27:46;57.38;;;28.25;;
11911;SDS011;6016;41.928;25.556;2023-12-29T06:30:13;57.97;;;27.65;;
11911;SDS011;6016;41.928;25.556;2023-12-29T06:32:41;44.53;;;21.55;;
11911;SDS011;6016;41.928;25.556;2023-12-29T06:35:08;37.40;;;18.88;;
11911;SDS011;6016;41.928;25.556;2023-12-29T06:37:36;39.08;;;21.52;;
11911;SDS011;6016;41.928;25.556;2023-12-29T06:40:04;44.17;;;21.13;;
11911;SDS011;6016;41.928;25.556;2023-12-29T06:42:33;41.20;;;22.77;;
11911;SDS011;6016;41.928;25.556;2023-12-29T06:45:00;98.45;;;40.67;;
11911;SDS011;6016;41.928;25.556;2023-12-29T06:47:27;113.13;;;46.28;;
11911;SDS011;6016;41.928;25.556;2023-12-29T06:49:54;106.60;;;44.78;;
11911;SDS011;6016;41.928;25.556;2023-12-29T06:52:22;92.80;;;39.30;;
11911;SDS011;6016;41.928;25.556;2023-12-29T06:54:49;68.32;;;31.27;;
11911;SDS011;6016;41.928;25.556;2023-12-29T06:57:16;68.20;;;29.85;;
11911;SDS011;6016;41.928;25.556;2023-12-29T06:59:45;73.15;;;31.83;;
11911;SDS011;6016;41.928;25.556;2023-12-29T07:02:12;86.53;;;37.30;;
11911;SDS011;6016;41.928;25.556;2023-12-29T07:04:41;88.78;;;35.80;;
11911;SDS011;6016;41.928;25.556;2023-12-29T07:07:08;97.63;;;36.85;;
11911;SDS011;6016;41.928;25.556;2023-12-29T07:09:37;91.63;;;38.42;;
11911;SDS011;6016;41.928;25.556;2023-12-29T07:12:05;106.90;;;44.25;;
11911;SDS011;6016;41.928;25.556;2023-12-29T07:14:32;86.38;;;38.08;;
11911;SDS011;6016;41.928;25.556;2023-12-29T07:17:02;124.05;;;49.28;;
11911;SDS011;6016;41.928;25.556;2023-12-29T07:19:29;113.45;;;51.20;;
11911;SDS011;6016;41.928;25.556;2023-12-29T07:22:02;84.68;;;41.50;;
11911;SDS011;6016;41.928;25.556;2023-12-29T07:24:30;80.85;;;36.88;;
11911;SDS011;6016;41.928;25.556;2023-12-29T07:26:57;75.80;;;34.47;;
11911;SDS011;6016;41.928;25.556;2023-12-29T07:29:24;59.92;;;27.52;;
11911;SDS011;6016;41.928;25.556;2023-12-29T07:31:51;61.88;;;26.40;;
11911;SDS011;6016;41.928;25.556;2023-12-29T07:34:20;55.38;;;25.05;;
11911;SDS011;6016;41.928;25.556;2023-12-29T07:36:47;50.17;;;22.88;;
11911;SDS011;6016;41.928;25.556;2023-12-29T07:39:14;54.00;;;25.13;;
11911;SDS011;6016;41.928;25.556;2023-12-29T07:41:42;51.60;;;22.73;;
11911;SDS011;6016;41.928;25.556;2023-12-29T07:44:10;51.05;;;22.83;;
11911;SDS011;6016;41.928;25.556;2023-12-29T07:46:37;58.63;;;25.65;;
11911;SDS011;6016;41.928;25.556;2023-12-29T07:49:05;49.45;;;23.13;;
11911;SDS011;6016;41.928;25.556;2023-12-29T07:51:33;52.72;;;25.02;;
11911;SDS011;6016;41.928;25.556;2023-12-29T07:54:00;42.70;;;20.27;;
11911;SDS011;6016;41.928;25.556;2023-12-29T07:56:27;35.33;;;17.42;;
11911;SDS011;6016;41.928;25.556;2023-12-29T07:58:54;29.20;;;13.75;;
11911;SDS011;6016;41.928;25.556;2023-12-29T08:01:21;30.25;;;14.95;;
11911;SDS011;6016;41.928;25.556;2023-12-29T08:03:48;35.47;;;16.67;;
11911;SDS011;6016;41.928;25.556;2023-12-29T08:06:15;42.15;;;19.13;;
11911;SDS011;6016;41.928;25.556;2023-12-29T08:08:44;83.15;;;40.67;;
11911;SDS011;6016;41.928;25.556;2023-12-29T08:11:14;77.50;;;39.03;;
11911;SDS011;6016;41.928;25.556;2023-12-29T08:13:42;76.32;;;37.35;;
11911;SDS011;6016;41.928;25.556;2023-12-29T08:16:10;333.63;;;198.40;;
11911;SDS011;6016;41.928;25.556;2023-12-29T08:18:37;100.97;;;50.97;;
11911;SDS011;6016;41.928;25.556;2023-12-29T08:21:04;80.40;;;38.80;;
11911;SDS011;6016;41.928;25.556;2023-12-29T08:23:31;78.55;;;38.30;;
11911;SDS011;6016;41.928;25.556;2023-12-29T08:26:02;75.50;;;38.10;;
11911;SDS011;6016;41.928;25.556;2023-12-29T08:28:29;79.30;;;40.25;;
11911;SDS011;6016;41.928;25.556;2023-12-29T08:30:56;89.47;;;42.70;;
11911;SDS011;6016;41.928;25.556;2023-12-29T08:33:23;74.90;;;37.25;;
11911;SDS011;6016;41.928;25.556;2023-12-29T08:35:50;69.32;;;35.05;;
11911;SDS011;6016;41.928;25.556;2023-12-29T08:38:17;78.13;;;38.33;;
11911;SDS011;6016;41.928;25.556;2023-12-29T08:40:44;71.40;;;34.58;;
11911;SDS011;6016;41.928;25.556;2023-12-29T08:43:13;70.80;;;34.05;;
11911;SDS011;6016;41.928;25.556;2023-12-29T08:45:42;70.35;;;35.65;;
11911;SDS011;6016;41.928;25.556;2023-12-29T08:48:10;77.57;;;37.83;;
11911;SDS011;6016;41.928;25.556;2023-12-29T08:50:37;84.88;;;42.53;;
11911;SDS011;6016;41.928;25.556;2023-12-29T08:53:04;75.90;;;39.30;;
11911;SDS011;6016;41.928;25.556;2023-12-29T08:55:31;67.80;;;35.20;;
11911;SDS011;6016;41.928;25.556;2023-12-29T08:57:58;64.35;;;33.85;;
11911;SDS011;6016;41.928;25.556;2023-12-29T09:00:26;69.25;;;34.72;;
11911;SDS011;6016;41.928;25.556;2023-12-29T09:02:55;93.45;;;41.80;;
11911;SDS011;6016;41.928;25.556;2023-12-29T09:05:22;66.60;;;32.97;;
11911;SDS011;6016;41.928;25.556;2023-12-29T09:07:49;58.85;;;30.30;;
11911;SDS011;6016;41.928;25.556;2023-12-29T09:10:16;63.17;;;30.38;;
11911;SDS011;6016;41.928;25.556;2023-12-29T09:12:43;55.38;;;27.33;;
11911;SDS011;6016;41.928;25.556;2023-12-29T09:15:10;53.45;;;26.00;;
11911;SDS011;6016;41.928;25.556;2023-12-29T09:17:39;46.53;;;23.58;;
11911;SDS011;6016;41.928;25.556;2023-12-29T09:20:06;45.65;;;22.80;;
11911;SDS011;6016;41.928;25.556;2023-12-29T09:22:35;30.95;;;15.25;;
11911;SDS011;6016;41.928;25.556;2023-12-29T09:25:03;23.90;;;12.18;;
11911;SDS011;6016;41.928;25.556;2023-12-29T09:27:31;17.73;;;10.23;;
11911;SDS011;6016;41.928;25.556;2023-12-29T09:29:58;18.13;;;8.95;;
11911;SDS011;6016;41.928;25.556;2023-12-29T09:32:25;22.27;;;10.80;;
11911;SDS011;6016;41.928;25.556;2023-12-29T09:34:54;21.83;;;10.85;;
11911;SDS011;6016;41.928;25.556;2023-12-29T09:37:21;24.50;;;10.98;;
11911;SDS011;6016;41.928;25.556;2023-12-29T09:39:49;21.75;;;11.50;;
11911;SDS011;6016;41.928;25.556;2023-12-29T09:42:18;25.02;;;12.15;;
11911;SDS011;6016;41.928;25.556;2023-12-29T09:44:49;22.63;;;11.47;;
11911;SDS011;6016;41.928;25.556;2023-12-29T09:47:19;20.60;;;11.60;;
11911;SDS011;6016;41.928;25.556;2023-12-29T09:49:49;19.60;;;11.10;;
11911;SDS011;6016;41.928;25.556;2023-12-29T09:52:20;19.10;;;9.55;;
11911;SDS011;6016;41.928;25.556;2023-12-29T09:54:48;25.10;;;9.82;;
11911;SDS011;6016;41.928;25.556;2023-12-29T09:57:17;17.17;;;9.88;;
11911;SDS011;6016;41.928;25.556;2023-12-29T09:59:45;16.95;;;8.52;;
11911;SDS011;6016;41.928;25.556;2023-12-29T10:02:16;20.58;;;10.40;;
11911;SDS011;6016;41.928;25.556;2023-12-29T10:04:43;15.70;;;8.43;;
11911;SDS011;6016;41.928;25.556;2023-12-29T10:07:23;16.85;;;8.60;;
11911;SDS011;6016;41.928;25.556;2023-12-29T10:09:53;15.60;;;7.90;;
11911;SDS011;6016;41.928;25.556;2023-12-29T10:12:21;14.52;;;6.90;;
11911;SDS011;6016;41.928;25.556;2023-12-29T10:14:52;12.07;;;5.82;;
11911;SDS011;6016;41.928;25.556;2023-12-29T10:17:31;10.48;;;5.75;;
11911;SDS011;6016;41.928;25.556;2023-12-29T10:20:08;10.05;;;5.90;;
11911;SDS011;6016;41.928;25.556;2023-12-29T10:22:45;13.75;;;7.10;;
11911;SDS011;6016;41.928;25.556;2023-12-29T10:25:17;13.98;;;6.68;;
11911;SDS011;6016;41.928;25.556;2023-12-29T10:27:45;10.00;;;6.03;;
11911;SDS011;6016;41.928;25.556;2023-12-29T10:30:12;12.10;;;6.57;;
11911;SDS011;6016;41.928;25.556;2023-12-29T10:32:40;11.75;;;6.43;;
11911;SDS011;6016;41.928;25.556;2023-12-29T10:35:10;11.77;;;6.43;;
11911;SDS011;6016;41.928;25.556;2023-12-29T10:37:37;10.55;;;6.15;;
11911;SDS011;6016;41.928;25.556;2023-12-29T10:40:07;13.63;;;5.95;;
11911;SDS011;6016;41.928;25.556;2023-12-29T10:42:35;12.93;;;6.80;;
11911;SDS011;6016;41.928;25.556;2023-12-29T10:45:05;13.18;;;7.60;;
11911;SDS011;6016;41.928;25.556;2023-12-29T10:47:33;15.65;;;6.93;;
11911;SDS011;6016;41.928;25.556;2023-12-29T10:50:01;8.65;;;5.40;;
11911;SDS011;6016;41.928;25.556;2023-12-29T10:52:30;12.15;;;5.93;;
11911;SDS011;6016;41.928;25.556;2023-12-29T10:55:04;19.08;;;8.75;;
11911;SDS011;6016;41.928;25.556;2023-12-29T10:57:34;12.18;;;6.30;;
11911;SDS011;6016;41.928;25.556;2023-12-29T11:00:02;9.90;;;5.30;;
11911;SDS011;6016;41.928;25.556;2023-12-29T11:02:30;14.63;;;7.15;;
11911;SDS011;6016;41.928;25.556;2023-12-29T11:05:02;16.25;;;8.38;;
11911;SDS011;6016;41.928;25.556;2023-12-29T11:07:33;10.05;;;4.88;;
11911;SDS011;6016;41.928;25.556;2023-12-29T11:10:02;10.85;;;5.05;;
11911;SDS011;6016;41.928;25.556;2023-12-29T11:12:36;8.82;;;5.43;;
11911;SDS011;6016;41.928;25.556;2023-12-29T11:15:04;10.73;;;5.30;;
11911;SDS011;6016;41.928;25.556;2023-12-29T11:17:33;10.25;;;4.72;;
11911;SDS011;6016;41.928;25.556;2023-12-29T11:20:02;8.95;;;5.65;;
11911;SDS011;6016;41.928;25.556;2023-12-29T11:22:30;13.15;;;5.32;;
11911;SDS011;6016;41.928;25.556;2023-12-29T11:24:59;10.80;;;4.63;;
11911;SDS011;6016;41.928;25.556;2023-12-29T11:27:29;7.47;;;4.60;;
11911;SDS011;6016;41.928;25.556;2023-12-29T11:29:59;8.55;;;4.20;;
11911;SDS011;6016;41.928;25.556;2023-12-29T11:32:30;9.57;;;4.63;;
11911;SDS011;6016;41.928;25.556;2023-12-29T11:35:11;9.68;;;4.93;;
11911;SDS011;6016;41.928;25.556;2023-12-29T11:40:56;8.30;;;4.22;;
11911;SDS011;6016;41.928;25.556;2023-12-29T11:43:29;8.38;;;4.80;;
11911;SDS011;6016;41.928;25.556;2023-12-29T11:45:58;10.52;;;5.60;;
11911;SDS011;6016;41.928;25.556;2023-12-29T11:51:30;10.00;;;4.82;;
11911;SDS011;6016;41.928;25.556;2023-12-29T11:53:59;8.05;;;4.72;;
11911;SDS011;6016;41.928;25.556;2023-12-29T11:56:36;10.38;;;5.30;;
11911;SDS011;6016;41.928;25.556;2023-12-29T11:59:12;12.52;;;5.35;;
11911;SDS011;6016;41.928;25.556;2023-12-29T12:01:40;12.85;;;5.40;;
11911;SDS011;6016;41.928;25.556;2023-12-29T12:07:07;13.10;;;6.22;;
11911;SDS011;6016;41.928;25.556;2023-12-29T12:09:35;27.88;;;9.93;;
11911;SDS011;6016;41.928;25.556;2023-12-29T12:12:03;10.43;;;5.55;;
11911;SDS011;6016;41.928;25.556;2023-12-29T12:14:49;9.32;;;4.93;;
11911;SDS011;6016;41.928;25.556;2023-12-29T12:17:29;9.93;;;4.93;;
11911;SDS011;6016;41.928;25.556;2023-12-29T12:19:57;7.80;;;4.30;;
11911;SDS011;6016;41.928;25.556;2023-12-29T12:22:25;8.18;;;4.45;;
11911;SDS011;6016;41.928;25.556;2023-12-29T12:24:56;8.13;;;4.88;;
11911;SDS011;6016;41.928;25.556;2023-12-29T12:27:24;9.00;;;4.50;;
11911;SDS011;6016;41.928;25.556;2023-12-29T12:29:52;8.65;;;4.90;;
11911;SDS011;6016;41.928;25.556;2023-12-29T12:32:22;7.75;;;4.50;;
11911;SDS011;6016;41.928;25.556;2023-12-29T12:34:51;8.73;;;4.63;;
11911;SDS011;6016;41.928;25.556;2023-12-29T12:37:19;8.07;;;4.47;;
11911;SDS011;6016;41.928;25.556;2023-12-29T12:39:46;9.52;;;4.95;;
11911;SDS011;6016;41.928;25.556;2023-12-29T12:42:14;6.50;;;4.55;;
11911;SDS011;6016;41.928;25.556;2023-12-29T12:44:46;7.57;;;4.80;;
11911;SDS011;6016;41.928;25.556;2023-12-29T12:47:17;8.02;;;4.80;;
11911;SDS011;6016;41.928;25.556;2023-12-29T12:49:51;8.77;;;4.72;;
11911;SDS011;6016;41.928;25.556;2023-12-29T12:52:18;9.13;;;4.35;;
11911;SDS011;6016;41.928;25.556;2023-12-29T12:54:46;9.35;;;4.78;;
11911;SDS011;6016;41.928;25.556;2023-12-29T12:57:17;10.88;;;4.38;;
11911;SDS011;6016;41.928;25.556;2023-12-29T12:59:45;8.18;;;4.40;;
11911;SDS011;6016;41.928;25.556;2023-12-29T13:02:13;9.07;;;4.75;;
11911;SDS011;6016;41.928;25.556;2023-12-29T13:04:40;9.98;;;4.30;;
11911;SDS011;6016;41.928;25.556;2023-12-29T13:07:10;7.38;;;4.03;;
11911;SDS011;6016;41.928;25.556;2023-12-29T13:09:37;7.80;;;3.97;;
11911;SDS011;6016;41.928;25.556;2023-12-29T13:12:08;8.25;;;4.70;;
11911;SDS011;6016;41.928;25.556;2023-12-29T13:14:35;9.57;;;5.25;;
11911;SDS011;6016;41.928;25.556;2023-12-29T13:17:06;15.00;;;6.50;;
11911;SDS011;6016;41.928;25.556;2023-12-29T13:19:34;11.30;;;5.85;;
11911;SDS011;6016;41.928;25.556;2023-12-29T13:22:01;14.20;;;6.10;;
11911;SDS011;6016;41.928;25.556;2023-12-29T13:24:30;11.65;;;6.28;;
11911;SDS011;6016;41.928;25.556;2023-12-29T13:27:02;15.32;;;6.75;;
11911;SDS011;6016;41.928;25.556;2023-12-29T13:29:32;13.98;;;7.28;;
11911;SDS011;6016;41.928;25.556;2023-12-29T13:32:03;13.48;;;7.00;;
11911;SDS011;6016;41.928;25.556;2023-12-29T13:34:35;11.00;;;6.15;;
11911;SDS011;6016;41.928;25.556;2023-12-29T13:37:06;14.80;;;7.35;;
11911;SDS011;6016;41.928;25.556;2023-12-29T13:39:44;12.70;;;6.95;;
11911;SDS011;6016;41.928;25.556;2023-12-29T13:42:21;13.35;;;7.00;;
11911;SDS011;6016;41.928;25.556;2023-12-29T13:44:50;14.77;;;7.10;;
11911;SDS011;6016;41.928;25.556;2023-12-29T13:47:20;14.45;;;7.55;;
11911;SDS011;6016;41.928;25.556;2023-12-29T13:49:47;14.52;;;7.63;;
11911;SDS011;6016;41.928;25.556;2023-12-29T13:52:14;13.50;;;8.20;;
11911;SDS011;6016;41.928;25.556;2023-12-29T13:54:44;17.10;;;8.40;;
11911;SDS011;6016;41.928;25.556;2023-12-29T13:57:12;16.67;;;8.50;;
11911;SDS011;6016;41.928;25.556;2023-12-29T13:59:39;15.10;;;8.82;;
11911;SDS011;6016;41.928;25.556;2023-12-29T14:02:18;18.23;;;9.73;;
11911;SDS011;6016;41.928;25.556;2023-12-29T14:05:02;22.63;;;10.93;;
11911;SDS011;6016;41.928;25.556;2023-12-29T14:07:37;19.98;;;10.63;;
11911;SDS011;6016;41.928;25.556;2023-12-29T14:10:12;18.25;;;9.88;;
11911;SDS011;6016;41.928;25.556;2023-12-29T14:12:39;21.23;;;10.13;;
11911;SDS011;6016;41.928;25.556;2023-12-29T14:15:07;24.13;;;11.48;;
11911;SDS011;6016;41.928;25.556;2023-12-29T14:17:35;21.05;;;10.98;;
11911;SDS011;6016;41.928;25.556;2023-12-29T14:20:03;25.95;;;12.50;;
11911;SDS011;6016;41.928;25.556;2023-12-29T14:22:32;25.00;;;11.85;;
11911;SDS011;6016;41.928;25.556;2023-12-29T14:25:00;22.67;;;11.65;;
11911;SDS011;6016;41.928;25.556;2023-12-29T14:27:30;51.30;;;23.33;;
11911;SDS011;6016;41.928;25.556;2023-12-29T14:29:57;24.02;;;11.95;;
11911;SDS011;6016;41.928;25.556;2023-12-29T14:32:24;20.13;;;10.90;;
11911;SDS011;6016;41.928;25.556;2023-12-29T14:34:54;22.70;;;12.10;;
11911;SDS011;6016;41.928;25.556;2023-12-29T14:37:21;20.77;;;10.60;;
11911;SDS011;6016;41.928;25.556;2023-12-29T14:39:49;21.75;;;11.60;;
11911;SDS011;6016;41.928;25.556;2023-12-29T14:42:16;38.50;;;16.13;;
11911;SDS011;6016;41.928;25.556;2023-12-29T14:44:46;41.80;;;20.88;;
11911;SDS011;6016;41.928;25.556;2023-12-29T14:47:14;51.08;;;24.40;;